sensor_id;sensor_type;location;lat;lon;timestamp;temperature;humidity
18446;DHT22;9352;50.888;4.466;2022-10-31T00:00:06;14.50;99.90
18446;DHT22;9352;50.888;4.466;2022-10-31T00:02:33;14.50;99.90
18446;DHT22;9352;50.888;4.466;2022-10-31T00:05:00;14.40;99.90
18446;DHT22;9352;50.888;4.466;2022-10-31T00:07:28;14.50;99.90
18446;DHT22;9352;50.888;4.466;2022-10-31T00:09:55;14.40;99.90
18446;DHT22;9352;50.888;4.466;2022-10-31T00:12:22;14.40;99.90
18446;DHT22;9352;50.888;4.466;2022-10-31T00:14:49;14.30;99.90
18446;DHT22;9352;50.888;4.466;2022-10-31T00:17:16;14.30;99.90
18446;DHT22;9352;50.888;4.466;2022-10-31T00:19:43;14.30;99.90
18446;DHT22;9352;50.888;4.466;2022-10-31T00:22:10;14.20;99.90
18446;DHT22;9352;50.888;4.466;2022-10-31T00:24:38;14.20;99.90
18446;DHT22;9352;50.888;4.466;2022-10-31T00:27:05;14.10;99.90
18446;DHT22;9352;50.888;4.466;2022-10-31T00:29:31;14.10;99.90
18446;DHT22;9352;50.888;4.466;2022-10-31T00:31:58;14.10;99.90
18446;DHT22;9352;50.888;4.466;2022-10-31T00:34:25;14.00;99.90
18446;DHT22;9352;50.888;4.466;2022-10-31T00:36:52;13.90;99.90
18446;DHT22;9352;50.888;4.466;2022-10-31T00:39:19;13.90;99.90
18446;DHT22;9352;50.888;4.466;2022-10-31T00:41:47;13.80;99.90
18446;DHT22;9352;50.888;4.466;2022-10-31T00:44:14;13.80;99.90
18446;DHT22;9352;50.888;4.466;2022-10-31T00:46:41;13.70;99.90
18446;DHT22;9352;50.888;4.466;2022-10-31T00:49:08;13.70;99.90
18446;DHT22;9352;50.888;4.466;2022-10-31T00:51:34;13.60;99.90
18446;DHT22;9352;50.888;4.466;2022-10-31T00:54:01;13.60;99.90
18446;DHT22;9352;50.888;4.466;2022-10-31T00:56:28;13.50;99.90
18446;DHT22;9352;50.888;4.466;2022-10-31T00:58:57;13.50;99.90
18446;DHT22;9352;50.888;4.466;2022-10-31T01:01:23;13.50;99.90
18446;DHT22;9352;50.888;4.466;2022-10-31T01:03:50;13.40;99.90
18446;DHT22;9352;50.888;4.466;2022-10-31T01:06:17;13.40;99.90
18446;DHT22;9352;50.888;4.466;2022-10-31T01:08:47;13.30;99.90
18446;DHT22;9352;50.888;4.466;2022-10-31T01:11:16;13.30;99.90
18446;DHT22;9352;50.888;4.466;2022-10-31T01:13:44;13.30;99.90
18446;DHT22;9352;50.888;4.466;2022-10-31T01:16:16;13.20;99.90
18446;DHT22;9352;50.888;4.466;2022-10-31T01:18:44;13.20;99.90
18446;DHT22;9352;50.888;4.466;2022-10-31T01:21:12;13.20;99.90
18446;DHT22;9352;50.888;4.466;2022-10-31T01:23:39;13.20;99.90
18446;DHT22;9352;50.888;4.466;2022-10-31T01:26:09;13.10;99.90
18446;DHT22;9352;50.888;4.466;2022-10-31T01:28:38;13.20;99.90
18446;DHT22;9352;50.888;4.466;2022-10-31T01:31:07;13.20;99.90
18446;DHT22;9352;50.888;4.466;2022-10-31T01:33:36;13.20;99.90
18446;DHT22;9352;50.888;4.466;2022-10-31T01:36:12;13.10;99.90
18446;DHT22;9352;50.888;4.466;2022-10-31T01:38:39;13.10;99.90
18446;DHT22;9352;50.888;4.466;2022-10-31T01:41:06;13.10;99.90
18446;DHT22;9352;50.888;4.466;2022-10-31T01:43:44;13.00;99.90
18446;DHT22;9352;50.888;4.466;2022-10-31T01:46:12;13.00;99.90
18446;DHT22;9352;50.888;4.466;2022-10-31T01:48:41;13.00;99.90
18446;DHT22;9352;50.888;4.466;2022-10-31T01:51:09;13.00;99.90
18446;DHT22;9352;50.888;4.466;2022-10-31T01:53:39;12.90;99.90
18446;DHT22;9352;50.888;4.466;2022-10-31T01:56:07;12.90;99.90
18446;DHT22;9352;50.888;4.466;2022-10-31T01:58:34;12.80;99.90
18446;DHT22;9352;50.888;4.466;2022-10-31T02:01:02;12.80;99.90
18446;DHT22;9352;50.888;4.466;2022-10-31T02:03:30;12.80;99.90
18446;DHT22;9352;50.888;4.466;2022-10-31T02:05:59;12.80;99.90
18446;DHT22;9352;50.888;4.466;2022-10-31T02:08:27;12.70;99.90
18446;DHT22;9352;50.888;4.466;2022-10-31T02:10:55;12.70;99.90
18446;DHT22;9352;50.888;4.466;2022-10-31T02:13:22;12.70;99.90
18446;DHT22;9352;50.888;4.466;2022-10-31T02:15:53;12.70;99.90
18446;DHT22;9352;50.888;4.466;2022-10-31T02:18:20;12.60;99.90
18446;DHT22;9352;50.888;4.466;2022-10-31T02:21:06;12.60;99.90
18446;DHT22;9352;50.888;4.466;2022-10-31T02:24:14;12.60;99.90
18446;DHT22;9352;50.888;4.466;2022-10-31T02:27:07;12.60;99.90
18446;DHT22;9352;50.888;4.466;2022-10-31T02:30:02;12.60;99.90
18446;DHT22;9352;50.888;4.466;2022-10-31T02:32:38;12.50;99.90
18446;DHT22;9352;50.888;4.466;2022-10-31T02:35:13;12.50;99.90
18446;DHT22;9352;50.888;4.466;2022-10-31T02:37:48;12.50;99.90
18446;DHT22;9352;50.888;4.466;2022-10-31T02:40:21;12.50;99.90
18446;DHT22;9352;50.888;4.466;2022-10-31T02:42:54;12.40;99.90
18446;DHT22;9352;50.888;4.466;2022-10-31T02:45:28;12.40;99.90
18446;DHT22;9352;50.888;4.466;2022-10-31T02:48:01;12.40;99.90
18446;DHT22;9352;50.888;4.466;2022-10-31T02:50:32;12.30;99.90
18446;DHT22;9352;50.888;4.466;2022-10-31T02:53:01;12.30;99.90
18446;DHT22;9352;50.888;4.466;2022-10-31T02:55:49;12.30;99.90
18446;DHT22;9352;50.888;4.466;2022-10-31T02:58:21;12.30;99.90
18446;DHT22;9352;50.888;4.466;2022-10-31T03:01:07;12.30;99.90
18446;DHT22;9352;50.888;4.466;2022-10-31T03:03:42;12.20;99.90
18446;DHT22;9352;50.888;4.466;2022-10-31T03:06:18;12.20;99.90
18446;DHT22;9352;50.888;4.466;2022-10-31T03:08:54;12.20;99.90
18446;DHT22;9352;50.888;4.466;2022-10-31T03:11:31;12.20;99.90
18446;DHT22;9352;50.888;4.466;2022-10-31T03:14:04;12.20;99.90
18446;DHT22;9352;50.888;4.466;2022-10-31T03:16:39;12.20;99.90
18446;DHT22;9352;50.888;4.466;2022-10-31T03:19:12;12.20;99.90
18446;DHT22;9352;50.888;4.466;2022-10-31T03:21:43;12.20;99.90
18446;DHT22;9352;50.888;4.466;2022-10-31T03:24:12;12.20;99.90
18446;DHT22;9352;50.888;4.466;2022-10-31T03:26:42;12.20;99.90
18446;DHT22;9352;50.888;4.466;2022-10-31T03:29:12;12.20;99.90
18446;DHT22;9352;50.888;4.466;2022-10-31T03:31:45;12.20;99.90
18446;DHT22;9352;50.888;4.466;2022-10-31T03:34:16;12.10;99.90
18446;DHT22;9352;50.888;4.466;2022-10-31T03:36:45;12.10;99.90
18446;DHT22;9352;50.888;4.466;2022-10-31T03:39:14;12.10;99.90
18446;DHT22;9352;50.888;4.466;2022-10-31T03:41:45;12.10;99.90
18446;DHT22;9352;50.888;4.466;2022-10-31T03:44:16;12.10;99.90
18446;DHT22;9352;50.888;4.466;2022-10-31T03:46:44;12.00;99.90
18446;DHT22;9352;50.888;4.466;2022-10-31T03:49:12;12.00;99.90
18446;DHT22;9352;50.888;4.466;2022-10-31T03:51:45;12.00;99.90
18446;DHT22;9352;50.888;4.466;2022-10-31T03:54:19;12.00;99.90
18446;DHT22;9352;50.888;4.466;2022-10-31T03:56:52;12.00;99.90
18446;DHT22;9352;50.888;4.466;2022-10-31T03:59:24;11.90;99.90
18446;DHT22;9352;50.888;4.466;2022-10-31T04:01:55;11.90;99.90
18446;DHT22;9352;50.888;4.466;2022-10-31T04:04:24;11.90;99.90
18446;DHT22;9352;50.888;4.466;2022-10-31T04:06:53;11.90;99.90
18446;DHT22;9352;50.888;4.466;2022-10-31T04:09:22;11.90;99.90
18446;DHT22;9352;50.888;4.466;2022-10-31T04:11:52;11.90;99.90
18446;DHT22;9352;50.888;4.466;2022-10-31T04:14:20;11.90;99.90
18446;DHT22;9352;50.888;4.466;2022-10-31T04:16:48;11.90;99.90
18446;DHT22;9352;50.888;4.466;2022-10-31T04:19:16;11.80;99.90
18446;DHT22;9352;50.888;4.466;2022-10-31T04:21:42;11.80;99.90
18446;DHT22;9352;50.888;4.466;2022-10-31T04:24:11;11.80;99.90
18446;DHT22;9352;50.888;4.466;2022-10-31T04:26:38;11.80;99.90
18446;DHT22;9352;50.888;4.466;2022-10-31T04:29:05;11.80;99.90
18446;DHT22;9352;50.888;4.466;2022-10-31T04:31:32;11.70;99.90
18446;DHT22;9352;50.888;4.466;2022-10-31T04:33:58;11.70;99.90
18446;DHT22;9352;50.888;4.466;2022-10-31T04:36:25;11.70;99.90
18446;DHT22;9352;50.888;4.466;2022-10-31T04:38:52;11.70;99.90
18446;DHT22;9352;50.888;4.466;2022-10-31T04:41:21;11.70;99.90
18446;DHT22;9352;50.888;4.466;2022-10-31T04:43:48;11.70;99.90
18446;DHT22;9352;50.888;4.466;2022-10-31T04:46:14;11.70;99.90
18446;DHT22;9352;50.888;4.466;2022-10-31T04:48:41;11.60;99.90
18446;DHT22;9352;50.888;4.466;2022-10-31T04:51:08;11.70;99.90
18446;DHT22;9352;50.888;4.466;2022-10-31T04:53:35;11.70;99.90
18446;DHT22;9352;50.888;4.466;2022-10-31T04:56:02;11.70;99.90
18446;DHT22;9352;50.888;4.466;2022-10-31T04:58:31;11.60;99.90
18446;DHT22;9352;50.888;4.466;2022-10-31T05:00:57;11.60;99.90
18446;DHT22;9352;50.888;4.466;2022-10-31T05:03:24;11.60;99.90
18446;DHT22;9352;50.888;4.466;2022-10-31T05:05:51;11.60;99.90
18446;DHT22;9352;50.888;4.466;2022-10-31T05:08:18;11.60;99.90
18446;DHT22;9352;50.888;4.466;2022-10-31T05:10:45;11.70;99.90
18446;DHT22;9352;50.888;4.466;2022-10-31T05:13:12;11.70;99.90
18446;DHT22;9352;50.888;4.466;2022-10-31T05:15:41;11.70;99.90
18446;DHT22;9352;50.888;4.466;2022-10-31T05:18:08;11.70;99.90
18446;DHT22;9352;50.888;4.466;2022-10-31T05:20:35;11.80;99.90
18446;DHT22;9352;50.888;4.466;2022-10-31T05:23:02;11.80;99.90
18446;DHT22;9352;50.888;4.466;2022-10-31T05:25:29;11.80;99.90
18446;DHT22;9352;50.888;4.466;2022-10-31T05:27:56;11.80;99.90
18446;DHT22;9352;50.888;4.466;2022-10-31T05:30:25;11.90;99.90
18446;DHT22;9352;50.888;4.466;2022-10-31T05:32:54;11.90;99.90
18446;DHT22;9352;50.888;4.466;2022-10-31T05:35:23;11.90;99.90
18446;DHT22;9352;50.888;4.466;2022-10-31T05:37:50;11.90;99.90
18446;DHT22;9352;50.888;4.466;2022-10-31T05:40:18;11.90;99.90
18446;DHT22;9352;50.888;4.466;2022-10-31T05:42:45;11.90;99.90
18446;DHT22;9352;50.888;4.466;2022-10-31T05:45:14;11.90;99.90
18446;DHT22;9352;50.888;4.466;2022-10-31T05:47:41;11.90;99.90
18446;DHT22;9352;50.888;4.466;2022-10-31T05:50:10;11.90;99.90
18446;DHT22;9352;50.888;4.466;2022-10-31T05:52:37;12.00;99.90
18446;DHT22;9352;50.888;4.466;2022-10-31T05:55:04;11.90;99.90
18446;DHT22;9352;50.888;4.466;2022-10-31T05:57:32;12.00;99.90
18446;DHT22;9352;50.888;4.466;2022-10-31T06:00:00;12.00;99.90
18446;DHT22;9352;50.888;4.466;2022-10-31T06:02:27;12.10;99.90
18446;DHT22;9352;50.888;4.466;2022-10-31T06:04:57;12.10;99.90
18446;DHT22;9352;50.888;4.466;2022-10-31T06:07:26;12.10;99.90
18446;DHT22;9352;50.888;4.466;2022-10-31T06:09:53;12.20;99.90
18446;DHT22;9352;50.888;4.466;2022-10-31T06:12:19;12.20;99.90
18446;DHT22;9352;50.888;4.466;2022-10-31T06:14:46;12.30;99.90
18446;DHT22;9352;50.888;4.466;2022-10-31T06:17:13;12.40;99.90
18446;DHT22;9352;50.888;4.466;2022-10-31T06:19:40;12.40;99.90
18446;DHT22;9352;50.888;4.466;2022-10-31T06:22:07;12.40;99.90
18446;DHT22;9352;50.888;4.466;2022-10-31T06:24:38;12.50;99.90
18446;DHT22;9352;50.888;4.466;2022-10-31T06:27:05;12.50;99.90
18446;DHT22;9352;50.888;4.466;2022-10-31T06:29:32;12.60;99.90
18446;DHT22;9352;50.888;4.466;2022-10-31T06:31:59;12.60;99.90
18446;DHT22;9352;50.888;4.466;2022-10-31T06:34:25;12.60;99.90
18446;DHT22;9352;50.888;4.466;2022-10-31T06:36:52;12.60;99.90
18446;DHT22;9352;50.888;4.466;2022-10-31T06:39:19;12.70;99.90
18446;DHT22;9352;50.888;4.466;2022-10-31T06:41:48;12.70;99.90
18446;DHT22;9352;50.888;4.466;2022-10-31T06:44:15;12.70;99.90
18446;DHT22;9352;50.888;4.466;2022-10-31T06:46:42;12.70;99.90
18446;DHT22;9352;50.888;4.466;2022-10-31T06:49:08;12.80;99.90
18446;DHT22;9352;50.888;4.466;2022-10-31T06:51:35;12.80;99.90
18446;DHT22;9352;50.888;4.466;2022-10-31T06:54:02;12.80;99.90
18446;DHT22;9352;50.888;4.466;2022-10-31T06:56:29;12.80;99.90
18446;DHT22;9352;50.888;4.466;2022-10-31T06:58:57;12.90;99.90
18446;DHT22;9352;50.888;4.466;2022-10-31T07:01:24;12.90;99.90
18446;DHT22;9352;50.888;4.466;2022-10-31T07:03:51;12.90;99.90
18446;DHT22;9352;50.888;4.466;2022-10-31T07:06:18;13.00;99.90
18446;DHT22;9352;50.888;4.466;2022-10-31T07:08:45;13.00;99.90
18446;DHT22;9352;50.888;4.466;2022-10-31T07:11:12;13.10;99.90
18446;DHT22;9352;50.888;4.466;2022-10-31T07:13:38;13.10;99.90
18446;DHT22;9352;50.888;4.466;2022-10-31T07:16:07;13.20;99.90
18446;DHT22;9352;50.888;4.466;2022-10-31T07:18:36;13.30;99.90
18446;DHT22;9352;50.888;4.466;2022-10-31T07:21:03;13.30;99.90
18446;DHT22;9352;50.888;4.466;2022-10-31T07:23:31;13.30;99.90
18446;DHT22;9352;50.888;4.466;2022-10-31T07:25:58;13.40;99.90
18446;DHT22;9352;50.888;4.466;2022-10-31T07:28:26;13.50;99.90
18446;DHT22;9352;50.888;4.466;2022-10-31T07:30:55;13.50;99.90
18446;DHT22;9352;50.888;4.466;2022-10-31T07:33:24;13.60;99.90
18446;DHT22;9352;50.888;4.466;2022-10-31T07:35:52;13.60;99.90
18446;DHT22;9352;50.888;4.466;2022-10-31T07:38:19;13.70;99.90
18446;DHT22;9352;50.888;4.466;2022-10-31T07:40:49;13.80;99.90
18446;DHT22;9352;50.888;4.466;2022-10-31T07:43:16;13.80;99.90
18446;DHT22;9352;50.888;4.466;2022-10-31T07:45:43;13.80;99.90
18446;DHT22;9352;50.888;4.466;2022-10-31T07:48:10;13.90;99.90
18446;DHT22;9352;50.888;4.466;2022-10-31T07:50:38;13.90;99.90
18446;DHT22;9352;50.888;4.466;2022-10-31T07:53:07;14.00;99.90
18446;DHT22;9352;50.888;4.466;2022-10-31T07:55:35;14.00;99.90
18446;DHT22;9352;50.888;4.466;2022-10-31T07:58:03;14.10;99.90
18446;DHT22;9352;50.888;4.466;2022-10-31T08:00:31;14.10;99.90
18446;DHT22;9352;50.888;4.466;2022-10-31T08:03:00;14.20;99.90
18446;DHT22;9352;50.888;4.466;2022-10-31T08:05:27;14.10;99.90
18446;DHT22;9352;50.888;4.466;2022-10-31T08:07:56;14.20;99.90
18446;DHT22;9352;50.888;4.466;2022-10-31T08:10:23;14.20;99.90
18446;DHT22;9352;50.888;4.466;2022-10-31T08:12:55;14.30;99.90
18446;DHT22;9352;50.888;4.466;2022-10-31T08:15:23;14.30;99.90
18446;DHT22;9352;50.888;4.466;2022-10-31T08:17:50;14.40;99.90
18446;DHT22;9352;50.888;4.466;2022-10-31T08:20:17;14.40;99.90
18446;DHT22;9352;50.888;4.466;2022-10-31T08:22:57;14.50;99.90
18446;DHT22;9352;50.888;4.466;2022-10-31T08:25:24;14.60;99.90
18446;DHT22;9352;50.888;4.466;2022-10-31T08:27:52;14.60;99.90
18446;DHT22;9352;50.888;4.466;2022-10-31T08:30:21;14.70;99.90
18446;DHT22;9352;50.888;4.466;2022-10-31T08:32:50;14.80;99.90
18446;DHT22;9352;50.888;4.466;2022-10-31T08:35:23;14.80;99.90
18446;DHT22;9352;50.888;4.466;2022-10-31T08:37:52;14.80;99.90
18446;DHT22;9352;50.888;4.466;2022-10-31T08:40:21;14.80;99.90
18446;DHT22;9352;50.888;4.466;2022-10-31T08:42:54;14.80;99.90
18446;DHT22;9352;50.888;4.466;2022-10-31T08:45:21;14.70;99.90
18446;DHT22;9352;50.888;4.466;2022-10-31T08:47:48;14.70;99.90
18446;DHT22;9352;50.888;4.466;2022-10-31T08:50:15;14.80;99.90
18446;DHT22;9352;50.888;4.466;2022-10-31T08:52:42;14.90;99.90
18446;DHT22;9352;50.888;4.466;2022-10-31T08:55:09;15.00;99.90
18446;DHT22;9352;50.888;4.466;2022-10-31T08:57:37;15.10;99.90
18446;DHT22;9352;50.888;4.466;2022-10-31T09:00:04;15.20;99.90
18446;DHT22;9352;50.888;4.466;2022-10-31T09:02:31;15.20;99.90
18446;DHT22;9352;50.888;4.466;2022-10-31T09:04:58;15.30;99.90
18446;DHT22;9352;50.888;4.466;2022-10-31T09:07:25;15.40;99.90
18446;DHT22;9352;50.888;4.466;2022-10-31T09:09:52;15.40;99.90
18446;DHT22;9352;50.888;4.466;2022-10-31T09:12:21;15.50;99.90
18446;DHT22;9352;50.888;4.466;2022-10-31T09:14:50;15.60;99.90
18446;DHT22;9352;50.888;4.466;2022-10-31T09:17:17;15.70;99.90
18446;DHT22;9352;50.888;4.466;2022-10-31T09:19:44;15.80;99.90
18446;DHT22;9352;50.888;4.466;2022-10-31T09:22:11;15.90;99.90
18446;DHT22;9352;50.888;4.466;2022-10-31T09:24:38;15.90;99.90
18446;DHT22;9352;50.888;4.466;2022-10-31T09:27:04;15.90;99.90
18446;DHT22;9352;50.888;4.466;2022-10-31T09:29:31;15.90;99.90
18446;DHT22;9352;50.888;4.466;2022-10-31T09:31:59;15.90;99.90
18446;DHT22;9352;50.888;4.466;2022-10-31T09:34:26;15.80;99.90
18446;DHT22;9352;50.888;4.466;2022-10-31T09:36:53;15.80;99.90
18446;DHT22;9352;50.888;4.466;2022-10-31T09:39:20;15.70;99.90
18446;DHT22;9352;50.888;4.466;2022-10-31T09:42:14;15.70;99.90
18446;DHT22;9352;50.888;4.466;2022-10-31T09:44:50;15.70;99.90
18446;DHT22;9352;50.888;4.466;2022-10-31T09:47:26;15.70;99.90
18446;DHT22;9352;50.888;4.466;2022-10-31T09:50:07;15.70;99.90
18446;DHT22;9352;50.888;4.466;2022-10-31T09:52:41;15.70;99.90
18446;DHT22;9352;50.888;4.466;2022-10-31T09:55:16;15.70;99.90
18446;DHT22;9352;50.888;4.466;2022-10-31T09:57:44;15.70;99.90
18446;DHT22;9352;50.888;4.466;2022-10-31T10:00:16;15.80;99.90
18446;DHT22;9352;50.888;4.466;2022-10-31T10:02:49;15.90;99.90
18446;DHT22;9352;50.888;4.466;2022-10-31T10:05:21;16.00;99.90
18446;DHT22;9352;50.888;4.466;2022-10-31T10:07:55;16.10;99.90
18446;DHT22;9352;50.888;4.466;2022-10-31T10:10:30;16.20;99.90
18446;DHT22;9352;50.888;4.466;2022-10-31T10:13:14;16.30;99.90
18446;DHT22;9352;50.888;4.466;2022-10-31T10:15:59;16.40;99.90
18446;DHT22;9352;50.888;4.466;2022-10-31T10:18:36;16.50;99.90
18446;DHT22;9352;50.888;4.466;2022-10-31T10:21:14;16.60;99.90
18446;DHT22;9352;50.888;4.466;2022-10-31T10:23:51;16.70;99.90
18446;DHT22;9352;50.888;4.466;2022-10-31T10:26:21;16.80;99.90
18446;DHT22;9352;50.888;4.466;2022-10-31T10:28:51;16.90;99.90
18446;DHT22;9352;50.888;4.466;2022-10-31T10:31:24;17.10;99.90
18446;DHT22;9352;50.888;4.466;2022-10-31T10:34:01;17.20;99.90
18446;DHT22;9352;50.888;4.466;2022-10-31T10:36:32;17.30;99.90
18446;DHT22;9352;50.888;4.466;2022-10-31T10:39:05;17.40;99.90
18446;DHT22;9352;50.888;4.466;2022-10-31T10:41:36;17.30;99.90
18446;DHT22;9352;50.888;4.466;2022-10-31T10:44:07;17.30;99.90
18446;DHT22;9352;50.888;4.466;2022-10-31T10:46:41;17.30;99.90
18446;DHT22;9352;50.888;4.466;2022-10-31T10:49:32;17.20;99.90
18446;DHT22;9352;50.888;4.466;2022-10-31T10:52:06;17.20;99.90
18446;DHT22;9352;50.888;4.466;2022-10-31T10:54:49;17.30;99.90
18446;DHT22;9352;50.888;4.466;2022-10-31T10:57:45;17.40;99.90
18446;DHT22;9352;50.888;4.466;2022-10-31T11:00:18;17.50;99.90
18446;DHT22;9352;50.888;4.466;2022-10-31T11:02:45;17.70;99.90
18446;DHT22;9352;50.888;4.466;2022-10-31T11:05:22;17.80;99.90
18446;DHT22;9352;50.888;4.466;2022-10-31T11:07:49;17.80;99.90
18446;DHT22;9352;50.888;4.466;2022-10-31T11:10:17;17.90;99.90
18446;DHT22;9352;50.888;4.466;2022-10-31T11:12:56;18.00;99.90
18446;DHT22;9352;50.888;4.466;2022-10-31T11:15:24;18.10;99.90
18446;DHT22;9352;50.888;4.466;2022-10-31T11:17:54;18.20;99.90
18446;DHT22;9352;50.888;4.466;2022-10-31T11:20:34;18.20;99.90
18446;DHT22;9352;50.888;4.466;2022-10-31T11:23:16;18.20;99.90
18446;DHT22;9352;50.888;4.466;2022-10-31T11:25:51;18.30;99.90
18446;DHT22;9352;50.888;4.466;2022-10-31T11:28:19;18.40;99.90
18446;DHT22;9352;50.888;4.466;2022-10-31T11:30:47;18.40;99.90
18446;DHT22;9352;50.888;4.466;2022-10-31T11:33:19;18.50;99.90
18446;DHT22;9352;50.888;4.466;2022-10-31T11:35:48;18.60;99.90
18446;DHT22;9352;50.888;4.466;2022-10-31T11:38:19;18.70;99.90
18446;DHT22;9352;50.888;4.466;2022-10-31T11:40:54;18.80;99.90
18446;DHT22;9352;50.888;4.466;2022-10-31T11:43:21;18.90;99.90
18446;DHT22;9352;50.888;4.466;2022-10-31T11:45:49;18.90;99.90
18446;DHT22;9352;50.888;4.466;2022-10-31T11:48:18;19.00;99.90
18446;DHT22;9352;50.888;4.466;2022-10-31T11:50:50;19.00;99.90
18446;DHT22;9352;50.888;4.466;2022-10-31T11:53:25;18.90;99.90
18446;DHT22;9352;50.888;4.466;2022-10-31T11:56:02;18.90;99.90
18446;DHT22;9352;50.888;4.466;2022-10-31T11:58:30;18.90;99.90
18446;DHT22;9352;50.888;4.466;2022-10-31T12:00:58;18.90;99.90
18446;DHT22;9352;50.888;4.466;2022-10-31T12:03:41;19.00;99.90
18446;DHT22;9352;50.888;4.466;2022-10-31T12:06:16;19.20;99.90
18446;DHT22;9352;50.888;4.466;2022-10-31T12:08:44;19.30;99.90
18446;DHT22;9352;50.888;4.466;2022-10-31T12:11:29;19.40;99.90
18446;DHT22;9352;50.888;4.466;2022-10-31T12:14:07;19.50;99.90
18446;DHT22;9352;50.888;4.466;2022-10-31T12:16:39;19.60;99.90
18446;DHT22;9352;50.888;4.466;2022-10-31T12:19:14;19.60;99.90
18446;DHT22;9352;50.888;4.466;2022-10-31T12:22:03;19.60;99.90
18446;DHT22;9352;50.888;4.466;2022-10-31T12:24:42;19.70;99.90
18446;DHT22;9352;50.888;4.466;2022-10-31T12:27:17;19.70;99.90
18446;DHT22;9352;50.888;4.466;2022-10-31T12:30:08;19.60;99.90
18446;DHT22;9352;50.888;4.466;2022-10-31T12:32:43;19.50;99.90
18446;DHT22;9352;50.888;4.466;2022-10-31T12:35:27;19.40;99.90
18446;DHT22;9352;50.888;4.466;2022-10-31T12:38:12;19.40;99.90
18446;DHT22;9352;50.888;4.466;2022-10-31T12:40:59;19.30;99.90
18446;DHT22;9352;50.888;4.466;2022-10-31T12:43:38;19.20;99.90
18446;DHT22;9352;50.888;4.466;2022-10-31T12:46:16;19.20;99.90
18446;DHT22;9352;50.888;4.466;2022-10-31T12:51:53;19.10;99.90
18446;DHT22;9352;50.888;4.466;2022-10-31T12:54:43;19.10;99.90
18446;DHT22;9352;50.888;4.466;2022-10-31T12:57:21;19.20;99.90
18446;DHT22;9352;50.888;4.466;2022-10-31T12:59:52;19.30;99.90
18446;DHT22;9352;50.888;4.466;2022-10-31T13:02:24;19.50;99.90
18446;DHT22;9352;50.888;4.466;2022-10-31T13:04:56;19.50;99.90
18446;DHT22;9352;50.888;4.466;2022-10-31T13:07:27;19.50;99.90
18446;DHT22;9352;50.888;4.466;2022-10-31T13:10:00;19.60;99.90
18446;DHT22;9352;50.888;4.466;2022-10-31T13:12:30;19.60;99.90
18446;DHT22;9352;50.888;4.466;2022-10-31T13:15:01;19.60;99.90
18446;DHT22;9352;50.888;4.466;2022-10-31T13:17:33;19.70;99.90
18446;DHT22;9352;50.888;4.466;2022-10-31T13:20:12;19.60;99.90
18446;DHT22;9352;50.888;4.466;2022-10-31T13:22:42;19.70;99.90
18446;DHT22;9352;50.888;4.466;2022-10-31T13:25:15;19.70;99.90
18446;DHT22;9352;50.888;4.466;2022-10-31T13:27:47;19.70;99.90
18446;DHT22;9352;50.888;4.466;2022-10-31T13:30:17;19.60;99.90
18446;DHT22;9352;50.888;4.466;2022-10-31T13:32:49;19.60;99.90
18446;DHT22;9352;50.888;4.466;2022-10-31T13:35:24;19.50;99.90
18446;DHT22;9352;50.888;4.466;2022-10-31T13:38:00;19.40;99.90
18446;DHT22;9352;50.888;4.466;2022-10-31T13:40:37;19.40;99.90
18446;DHT22;9352;50.888;4.466;2022-10-31T13:43:14;19.30;99.90
18446;DHT22;9352;50.888;4.466;2022-10-31T13:45:53;19.30;99.90
18446;DHT22;9352;50.888;4.466;2022-10-31T13:48:35;19.30;99.90
18446;DHT22;9352;50.888;4.466;2022-10-31T13:51:05;19.20;99.90
18446;DHT22;9352;50.888;4.466;2022-10-31T13:53:42;19.20;99.90
18446;DHT22;9352;50.888;4.466;2022-10-31T13:56:17;19.30;99.90
18446;DHT22;9352;50.888;4.466;2022-10-31T14:01:47;19.30;99.90
18446;DHT22;9352;50.888;4.466;2022-10-31T14:04:16;19.30;99.90
18446;DHT22;9352;50.888;4.466;2022-10-31T14:06:52;19.30;99.90
18446;DHT22;9352;50.888;4.466;2022-10-31T14:09:28;19.30;99.90
18446;DHT22;9352;50.888;4.466;2022-10-31T14:11:59;19.30;99.90
18446;DHT22;9352;50.888;4.466;2022-10-31T14:14:32;19.30;99.90
18446;DHT22;9352;50.888;4.466;2022-10-31T14:17:00;19.30;99.90
18446;DHT22;9352;50.888;4.466;2022-10-31T14:19:27;19.30;99.90
18446;DHT22;9352;50.888;4.466;2022-10-31T14:21:54;19.30;99.90
18446;DHT22;9352;50.888;4.466;2022-10-31T14:24:33;19.30;99.90
18446;DHT22;9352;50.888;4.466;2022-10-31T14:27:04;19.30;99.90
18446;DHT22;9352;50.888;4.466;2022-10-31T14:29:33;19.30;99.90
18446;DHT22;9352;50.888;4.466;2022-10-31T14:32:06;19.20;99.90
18446;DHT22;9352;50.888;4.466;2022-10-31T14:34:43;19.30;99.90
18446;DHT22;9352;50.888;4.466;2022-10-31T14:37:38;19.20;99.90
18446;DHT22;9352;50.888;4.466;2022-10-31T14:40:17;19.30;99.90
18446;DHT22;9352;50.888;4.466;2022-10-31T14:43:18;19.20;99.90
18446;DHT22;9352;50.888;4.466;2022-10-31T14:45:56;19.20;99.90
18446;DHT22;9352;50.888;4.466;2022-10-31T14:48:37;19.10;99.90
18446;DHT22;9352;50.888;4.466;2022-10-31T14:51:10;19.10;99.90
18446;DHT22;9352;50.888;4.466;2022-10-31T14:53:45;19.10;99.90
18446;DHT22;9352;50.888;4.466;2022-10-31T14:56:14;19.00;99.90
18446;DHT22;9352;50.888;4.466;2022-10-31T14:58:46;18.90;99.90
18446;DHT22;9352;50.888;4.466;2022-10-31T15:01:24;18.90;99.90
18446;DHT22;9352;50.888;4.466;2022-10-31T15:03:53;18.80;99.90
18446;DHT22;9352;50.888;4.466;2022-10-31T15:06:23;18.80;99.90
18446;DHT22;9352;50.888;4.466;2022-10-31T15:08:52;18.80;99.90
18446;DHT22;9352;50.888;4.466;2022-10-31T15:11:21;18.80;99.90
18446;DHT22;9352;50.888;4.466;2022-10-31T15:13:51;18.70;99.90
18446;DHT22;9352;50.888;4.466;2022-10-31T15:16:21;18.60;99.90
18446;DHT22;9352;50.888;4.466;2022-10-31T15:18:52;18.60;99.90
18446;DHT22;9352;50.888;4.466;2022-10-31T15:21:21;18.50;99.90
18446;DHT22;9352;50.888;4.466;2022-10-31T15:23:50;18.40;99.90
18446;DHT22;9352;50.888;4.466;2022-10-31T15:26:19;18.30;99.90
18446;DHT22;9352;50.888;4.466;2022-10-31T15:28:56;18.20;99.90
18446;DHT22;9352;50.888;4.466;2022-10-31T15:31:25;18.10;99.90
18446;DHT22;9352;50.888;4.466;2022-10-31T15:33:54;18.00;99.90
18446;DHT22;9352;50.888;4.466;2022-10-31T15:36:24;18.00;99.90
18446;DHT22;9352;50.888;4.466;2022-10-31T15:38:51;17.90;99.90
18446;DHT22;9352;50.888;4.466;2022-10-31T15:41:24;17.90;99.90
18446;DHT22;9352;50.888;4.466;2022-10-31T15:43:54;17.80;99.90
18446;DHT22;9352;50.888;4.466;2022-10-31T15:46:21;17.70;99.90
18446;DHT22;9352;50.888;4.466;2022-10-31T15:48:50;17.60;99.90
18446;DHT22;9352;50.888;4.466;2022-10-31T15:51:16;17.50;99.90
18446;DHT22;9352;50.888;4.466;2022-10-31T15:53:52;17.50;99.90
18446;DHT22;9352;50.888;4.466;2022-10-31T15:56:22;17.40;99.90
18446;DHT22;9352;50.888;4.466;2022-10-31T15:58:52;17.30;99.90
18446;DHT22;9352;50.888;4.466;2022-10-31T16:01:21;17.30;99.90
18446;DHT22;9352;50.888;4.466;2022-10-31T16:03:59;17.20;99.90
18446;DHT22;9352;50.888;4.466;2022-10-31T16:06:27;17.10;99.90
18446;DHT22;9352;50.888;4.466;2022-10-31T16:08:53;17.10;99.90
18446;DHT22;9352;50.888;4.466;2022-10-31T16:11:24;17.00;99.90
18446;DHT22;9352;50.888;4.466;2022-10-31T16:13:57;16.90;99.90